Time;durP1;ratioP1;P1;durP2;ratioP2;P2;SDS_P1;SDS_P2;PMS_P1;PMS_P2;Temp;Humidity;BMP_temperature;BMP_pressure;BME280_temperature;BME280_humidity;BME280_pressure;Samples;Min_cycle;Max_cycle;Signal;HPM_P1;HPM_P2
2023/08/24 00:01:53;;;;;;;2.90;2.03;;;;;;;;;;5036495;28;20458;-64
2023/08/24 00:04:19;;;;;;;3.22;2.15;;;;;;;;;;5027214;28;20076;-64
2023/08/24 00:06:44;;;;;;;3.05;2.20;;;;;;;;;;5018976;28;20036;-64
2023/08/24 00:09:10;;;;;;;3.33;2.15;;;;;;;;;;5019748;28;20053;-65
2023/08/24 00:11:35;;;;;;;2.92;1.95;;;;;;;;;;5019723;28;20486;-64
2023/08/24 00:14:02;;;;;;;3.85;2.33;;;;;;;;;;5032810;28;20468;-64
2023/08/24 00:16:27;;;;;;;2.35;1.80;;;;;;;;;;5038654;28;20025;-64
2023/08/24 00:18:53;;;;;;;2.65;1.90;;;;;;;;;;5038513;28;20028;-64
2023/08/24 00:21:22;;;;;;;2.90;2.15;;;;;;;;;;5038431;28;20021;-64
2023/08/24 00:23:49;;;;;;;3.08;1.90;;;;;;;;;;5038692;28;20120;-65
2023/08/24 00:26:16;;;;;;;2.75;1.80;;;;;;;;;;5018319;28;20433;-64
2023/08/24 00:28:42;;;;;;;2.20;1.83;;;;;;;;;;5018561;28;20025;-64
2023/08/24 00:31:08;;;;;;;2.63;1.80;;;;;;;;;;5018473;28;20168;-64
2023/08/24 00:33:33;;;;;;;2.95;2.00;;;;;;;;;;5031672;28;20037;-64
2023/08/24 00:36:00;;;;;;;3.35;2.20;;;;;;;;;;5038037;28;20376;-64
2023/08/24 00:38:26;;;;;;;2.80;2.08;;;;;;;;;;5054777;28;20167;-65
2023/08/24 00:40:53;;;;;;;3.53;2.00;;;;;;;;;;5038107;28;20119;-65
2023/08/24 00:43:23;;;;;;;2.47;1.85;;;;;;;;;;5035735;28;20029;-64
2023/08/24 00:45:54;;;;;;;2.88;2.10;;;;;;;;;;5038063;28;20025;-64
2023/08/24 00:48:21;;;;;;;2.40;1.85;;;;;;;;;;5021733;28;20033;-64
2023/08/24 00:50:46;;;;;;;2.33;1.75;;;;;;;;;;5037945;28;20096;-64
2023/08/24 00:53:12;;;;;;;2.80;1.90;;;;;;;;;;5036011;28;20426;-64
2023/08/24 00:55:38;;;;;;;3.03;1.90;;;;;;;;;;5037852;28;20124;-64
2023/08/24 00:58:03;;;;;;;3.17;1.75;;;;;;;;;;5037856;28;20060;-64
2023/08/24 01:00:30;;;;;;;3.47;2.20;;;;;;;;;;5052691;28;20072;-65
2023/08/24 01:02:55;;;;;;;3.08;1.95;;;;;;;;;;5018154;28;20037;-64
2023/08/24 01:05:21;;;;;;;3.03;2.33;;;;;;;;;;5018002;28;20120;-65
2023/08/24 01:07:47;;;;;;;2.47;1.90;;;;;;;;;;5017831;28;20025;-64
2023/08/24 01:10:12;;;;;;;2.90;2.10;;;;;;;;;;5018327;28;20506;-64
2023/08/24 01:12:41;;;;;;;2.60;1.98;;;;;;;;;;5035528;28;20421;-64
2023/08/24 01:15:14;;;;;;;2.67;1.80;;;;;;;;;;5036970;28;20040;-64
2023/08/24 01:17:39;;;;;;;;;;;;;;;;;;5038111;28;20028;-62
2023/08/24 01:20:09;;;;;;;2.83;1.92;;;;;;;;;;5025910;28;20272;-64
2023/08/24 01:22:41;;;;;;;2.90;2.00;;;;;;;;;;5034030;28;20468;-62
2023/08/24 01:25:10;;;;;;;3.20;1.80;;;;;;;;;;5017066;28;20030;-62
2023/08/24 01:27:36;;;;;;;3.88;2.25;;;;;;;;;;5017418;28;20036;-62
2023/08/24 01:30:05;;;;;;;2.55;2.00;;;;;;;;;;5027436;28;20021;-62
2023/08/24 01:32:32;;;;;;;3.35;1.90;;;;;;;;;;5036713;28;20020;-62
2023/08/24 01:34:57;;;;;;;2.42;1.92;;;;;;;;;;5037034;28;20029;-62
2023/08/24 01:37:23;;;;;;;3.15;1.90;;;;;;;;;;5037022;28;20078;-62
2023/08/24 01:39:53;;;;;;;3.13;1.70;;;;;;;;;;5028353;28;20037;-62
2023/08/24 01:42:21;;;;;;;2.85;1.92;;;;;;;;;;5050195;28;20029;-62
2023/08/24 01:44:52;;;;;;;2.85;1.75;;;;;;;;;;5016843;28;20021;-63
2023/08/24 01:47:18;;;;;;;3.47;1.98;;;;;;;;;;5017033;28;20091;-62
2023/08/24 01:49:44;;;;;;;2.78;2.00;;;;;;;;;;5024304;28;20426;-62
2023/08/24 01:52:10;;;;;;;4.13;2.15;;;;;;;;;;5036514;28;20456;-64
2023/08/24 01:54:35;;;;;;;3.70;2.13;;;;;;;;;;5036736;28;20025;-64
2023/08/24 01:57:01;;;;;;;3.22;2.15;;;;;;;;;;5036633;28;20082;-63
2023/08/24 01:59:27;;;;;;;2.38;1.88;;;;;;;;;;5018214;28;20392;-63
2023/08/24 02:01:52;;;;;;;4.53;2.13;;;;;;;;;;5036636;28;20086;-63
2023/08/24 02:04:18;;;;;;;3.30;2.17;;;;;;;;;;5036802;28;20075;-63
2023/08/24 02:06:43;;;;;;;3.78;2.00;;;;;;;;;;5036486;28;20032;-64
2023/08/24 02:09:09;;;;;;;3.85;2.00;;;;;;;;;;5034606;28;20032;-63
2023/08/24 02:11:34;;;;;;;3.00;2.30;;;;;;;;;;5035039;28;20349;-63
2023/08/24 02:14:00;;;;;;;2.80;2.00;;;;;;;;;;5036380;28;20479;-63
2023/08/24 02:16:25;;;;;;;2.70;1.80;;;;;;;;;;5036380;28;20055;-64
2023/08/24 02:18:51;;;;;;;3.53;1.80;;;;;;;;;;5026583;28;20354;-63
2023/08/24 02:21:16;;;;;;;5.15;2.08;;;;;;;;;;5016528;28;20563;-63
2023/08/24 02:23:42;;;;;;;3.45;2.00;;;;;;;;;;5016313;28;20029;-63
2023/08/24 02:26:07;;;;;;;3.40;2.00;;;;;;;;;;5016631;28;20029;-64
2023/08/24 02:28:33;;;;;;;3.25;1.92;;;;;;;;;;5016585;28;20029;-63
2023/08/24 02:31:03;;;;;;;3.15;2.20;;;;;;;;;;5016315;28;20075;-63
2023/08/24 02:33:29;;;;;;;4.82;2.22;;;;;;;;;;5016641;28;20432;-63
2023/08/24 02:35:54;;;;;;;2.58;2.05;;;;;;;;;;5017165;28;20033;-63
2023/08/24 02:38:20;;;;;;;4.50;2.33;;;;;;;;;;5016324;28;20116;-63
2023/08/24 02:40:46;;;;;;;4.20;2.10;;;;;;;;;;5016265;28;20052;-63
2023/08/24 02:43:12;;;;;;;4.47;2.00;;;;;;;;;;5016149;28;20021;-64
2023/08/24 02:45:37;;;;;;;3.55;2.10;;;;;;;;;;5017669;28;20036;-63
2023/08/24 02:48:03;;;;;;;4.35;2.30;;;;;;;;;;5025955;28;20021;-64
2023/08/24 02:50:29;;;;;;;3.63;1.90;;;;;;;;;;5035855;28;20029;-64
2023/08/24 02:52:54;;;;;;;3.42;2.30;;;;;;;;;;5035891;28;20027;-64
2023/08/24 02:55:20;;;;;;;3.90;2.22;;;;;;;;;;5031370;28;20372;-63
2023/08/24 02:57:45;;;;;;;3.40;2.20;;;;;;;;;;5016089;28;20116;-63
2023/08/24 03:00:13;;;;;;;3.30;2.20;;;;;;;;;;5016598;28;20025;-63
2023/08/24 03:02:41;;;;;;;3.20;1.90;;;;;;;;;;5016384;28;20030;-63
2023/08/24 03:05:07;;;;;;;3.15;1.95;;;;;;;;;;5031325;28;20494;-63
2023/08/24 03:07:32;;;;;;;3.28;1.85;;;;;;;;;;5035651;28;20035;-65
2023/08/24 03:09:58;;;;;;;2.55;1.90;;;;;;;;;;5035457;28;20025;-63
2023/08/24 03:12:23;;;;;;;2.85;1.98;;;;;;;;;;5035337;28;20440;-63
2023/08/24 03:14:51;;;;;;;2.60;2.00;;;;;;;;;;5022926;28;20030;-63
2023/08/24 03:17:17;;;;;;;2.90;1.90;;;;;;;;;;5015666;28;20369;-63
2023/08/24 03:19:43;;;;;;;3.20;2.10;;;;;;;;;;5032362;28;20108;-63
2023/08/24 03:22:08;;;;;;;3.17;1.80;;;;;;;;;;5015848;28;20445;-64
2023/08/24 03:24:34;;;;;;;2.95;1.92;;;;;;;;;;5025146;28;20036;-63
2023/08/24 03:27:00;;;;;;;2.50;1.90;;;;;;;;;;5052105;28;20045;-63
2023/08/24 03:29:25;;;;;;;2.97;1.92;;;;;;;;;;5036110;28;20017;-63
2023/08/24 03:31:51;;;;;;;3.78;2.10;;;;;;;;;;5034568;28;20513;-65
2023/08/24 03:34:16;;;;;;;3.92;2.10;;;;;;;;;;5032042;28;20044;-63
2023/08/24 03:36:42;;;;;;;4.35;2.22;;;;;;;;;;5016748;28;20021;-62
2023/08/24 03:39:07;;;;;;;3.50;1.98;;;;;;;;;;5019443;28;20021;-63
2023/08/24 03:41:33;;;;;;;3.10;1.90;;;;;;;;;;5019461;28;20399;-63
2023/08/24 03:43:59;;;;;;;2.80;1.83;;;;;;;;;;5036861;28;20029;-63
2023/08/24 03:46:24;;;;;;;3.70;2.00;;;;;;;;;;5039480;28;20059;-64
2023/08/24 03:48:50;;;;;;;4.78;2.42;;;;;;;;;;5039111;28;20025;-64
2023/08/24 03:51:15;;;;;;;3.80;2.10;;;;;;;;;;5039059;28;20025;-63
2023/08/24 03:53:41;;;;;;;2.60;1.92;;;;;;;;;;5037157;28;20032;-63
2023/08/24 03:56:06;;;;;;;4.18;2.10;;;;;;;;;;5039028;28;20094;-63
2023/08/24 03:58:32;;;;;;;3.20;1.90;;;;;;;;;;5039630;28;20447;-63
2023/08/24 04:00:57;;;;;;;3.58;2.72;;;;;;;;;;5038892;28;20464;-63
2023/08/24 04:03:23;;;;;;;2.83;1.80;;;;;;;;;;5025564;28;20020;-64
2023/08/24 04:05:48;;;;;;;2.58;1.92;;;;;;;;;;5019350;28;20026;-63
2023/08/24 04:08:14;;;;;;;3.47;2.00;;;;;;;;;;5018949;28;20534;-63
2023/08/24 04:10:39;;;;;;;2.53;1.85;;;;;;;;;;5018907;28;20026;-63
2023/08/24 04:13:05;;;;;;;4.03;2.10;;;;;;;;;;5027080;28;20021;-63
2023/08/24 04:15:31;;;;;;;2.70;1.85;;;;;;;;;;5038592;28;20040;-63
2023/08/24 04:17:56;;;;;;;2.75;1.50;;;;;;;;;;5038036;28;20033;-63
2023/08/24 04:20:22;;;;;;;3.10;1.80;;;;;;;;;;5038602;28;20021;-63
2023/08/24 04:22:47;;;;;;;2.92;1.80;;;;;;;;;;5036379;28;20051;-63
2023/08/24 04:25:13;;;;;;;3.25;1.98;;;;;;;;;;5038158;28;20035;-62
2023/08/24 04:27:38;;;;;;;3.53;2.03;;;;;;;;;;5038426;28;20029;-63
2023/08/24 04:30:04;;;;;;;3.08;1.75;;;;;;;;;;5038936;28;20029;-64
2023/08/24 04:32:32;;;;;;;2.33;1.73;;;;;;;;;;5036552;28;20103;-63
2023/08/24 04:34:57;;;;;;;2.40;1.73;;;;;;;;;;5038104;28;20355;-63
2023/08/24 04:37:23;;;;;;;2.60;1.70;;;;;;;;;;5038105;28;20108;-63
2023/08/24 04:39:48;;;;;;;3.90;1.80;;;;;;;;;;5038164;28;20033;-63
2023/08/24 04:42:14;;;;;;;3.42;1.77;;;;;;;;;;5035942;28;20031;-64
2023/08/24 04:44:40;;;;;;;3.20;2.00;;;;;;;;;;5037855;28;20434;-63
2023/08/24 04:47:06;;;;;;;2.50;1.80;;;;;;;;;;5021458;28;20037;-63
2023/08/24 04:49:31;;;;;;;1.83;1.50;;;;;;;;;;5038057;28;20029;-64
2023/08/24 04:51:57;;;;;;;3.38;1.80;;;;;;;;;;5035911;28;20021;-63
2023/08/24 04:54:22;;;;;;;2.50;1.65;;;;;;;;;;5037921;28;20029;-63
2023/08/24 04:56:48;;;;;;;2.53;1.70;;;;;;;;;;5037853;28;20032;-63
2023/08/24 04:59:14;;;;;;;2.45;1.90;;;;;;;;;;5037833;28;20021;-63
2023/08/24 05:01:39;;;;;;;3.42;1.90;;;;;;;;;;5035830;28;20492;-63
2023/08/24 05:04:05;;;;;;;3.08;1.80;;;;;;;;;;5037377;28;20109;-63
2023/08/24 05:06:30;;;;;;;3.05;1.85;;;;;;;;;;5037670;28;20024;-63
2023/08/24 05:08:57;;;;;;;2.50;1.50;;;;;;;;;;5036157;28;20032;-63
2023/08/24 05:11:24;;;;;;;2.47;1.50;;;;;;;;;;5017780;28;20415;-63
2023/08/24 05:13:50;;;;;;;2.55;1.85;;;;;;;;;;5011298;28;20079;-63
2023/08/24 05:16:16;;;;;;;3.00;1.65;;;;;;;;;;5038312;28;20033;-63
2023/08/24 05:18:41;;;;;;;3.17;1.75;;;;;;;;;;5037502;28;20033;-63
2023/08/24 05:21:07;;;;;;;2.17;1.45;;;;;;;;;;5037273;28;20025;-63
2023/08/24 05:23:33;;;;;;;3.58;1.90;;;;;;;;;;5035379;28;20025;-64
2023/08/24 05:25:58;;;;;;;2.47;1.65;;;;;;;;;;5037731;28;20029;-64
2023/08/24 05:28:28;;;;;;;2.10;1.60;;;;;;;;;;5037243;28;20534;-63
2023/08/24 05:30:54;;;;;;;3.03;1.75;;;;;;;;;;5036998;28;20032;-63
2023/08/24 05:33:20;;;;;;;2.92;1.90;;;;;;;;;;5035252;28;20017;-63
2023/08/24 05:35:46;;;;;;;3.42;1.60;;;;;;;;;;5028199;28;20033;-63
2023/08/24 05:38:12;;;;;;;1.77;1.40;;;;;;;;;;5017745;28;20025;-63
2023/08/24 05:40:38;;;;;;;2.78;1.70;;;;;;;;;;5001001;28;20456;-63
2023/08/24 05:43:04;;;;;;;2.85;1.65;;;;;;;;;;5017750;28;22155;-63
2023/08/24 05:45:30;;;;;;;2.40;1.77;;;;;;;;;;5034387;28;20510;-64
2023/08/24 05:47:55;;;;;;;2.80;1.70;;;;;;;;;;5017112;28;20021;-63
2023/08/24 05:50:21;;;;;;;3.15;1.77;;;;;;;;;;5017136;28;20468;-62
2023/08/24 05:52:46;;;;;;;2.38;1.80;;;;;;;;;;5016488;28;20478;-63
2023/08/24 05:55:12;;;;;;;2.53;1.70;;;;;;;;;;5016998;28;20033;-65
2023/08/24 05:57:37;;;;;;;2.72;1.52;;;;;;;;;;5016920;28;20021;-63
2023/08/24 06:00:09;;;;;;;2.85;1.70;;;;;;;;;;5016457;28;20021;-63
2023/08/24 06:02:39;;;;;;;2.40;1.70;;;;;;;;;;5002022;28;20052;-63
2023/08/24 06:05:04;;;;;;;2.63;1.75;;;;;;;;;;5016368;28;20080;-63
2023/08/24 06:07:30;;;;;;;2.70;1.63;;;;;;;;;;5016803;28;20049;-63
2023/08/24 06:10:03;;;;;;;2.25;1.67;;;;;;;;;;5023657;28;20078;-63
2023/08/24 06:12:31;;;;;;;2.50;1.50;;;;;;;;;;5019952;28;20031;-64
2023/08/24 06:14:56;;;;;;;2.72;1.70;;;;;;;;;;5016621;28;20017;-65
2023/08/24 06:17:22;;;;;;;2.10;1.70;;;;;;;;;;5016587;28;20456;-65
2023/08/24 06:19:48;;;;;;;2.70;1.60;;;;;;;;;;5016583;28;20026;-64
2023/08/24 06:22:13;;;;;;;2.30;1.80;;;;;;;;;;5016577;28;20040;-65
2023/08/24 06:24:39;;;;;;;2.28;1.60;;;;;;;;;;5016198;28;20487;-66
2023/08/24 06:27:04;;;;;;;2.33;1.60;;;;;;;;;;5015990;28;20116;-65
2023/08/24 06:29:30;;;;;;;2.88;1.60;;;;;;;;;;5016407;28;20116;-65
2023/08/24 06:31:55;;;;;;;2.42;1.63;;;;;;;;;;5016073;28;20025;-64
2023/08/24 06:34:21;;;;;;;1.80;1.42;;;;;;;;;;5016310;28;20030;-65
2023/08/24 06:36:47;;;;;;;2.30;1.58;;;;;;;;;;5015421;28;20460;-63
2023/08/24 06:39:13;;;;;;;2.08;1.50;;;;;;;;;;5015214;28;20079;-63
2023/08/24 06:41:38;;;;;;;2.63;1.70;;;;;;;;;;4999957;28;20083;-64
2023/08/24 06:44:05;;;;;;;2.72;1.63;;;;;;;;;;5016990;28;20032;-63
2023/08/24 06:46:31;;;;;;;1.65;1.25;;;;;;;;;;5016175;28;20032;-63
2023/08/24 06:48:56;;;;;;;2.03;1.52;;;;;;;;;;5016172;28;20017;-63
2023/08/24 06:51:22;;;;;;;1.83;1.40;;;;;;;;;;5015613;28;20025;-63
2023/08/24 06:53:50;;;;;;;2.25;1.52;;;;;;;;;;5016188;28;20456;-64
2023/08/24 06:56:17;;;;;;;2.15;1.40;;;;;;;;;;5016182;28;20037;-64
2023/08/24 06:58:43;;;;;;;1.77;1.38;;;;;;;;;;5016197;28;20024;-64
2023/08/24 07:01:08;;;;;;;2.15;1.35;;;;;;;;;;4999792;28;20030;-64
2023/08/24 07:03:34;;;;;;;2.22;1.50;;;;;;;;;;5015914;28;20033;-64
2023/08/24 07:05:59;;;;;;;2.13;1.50;;;;;;;;;;5015886;28;20293;-64
2023/08/24 07:08:25;;;;;;;2.78;1.60;;;;;;;;;;5016002;28;20029;-64
2023/08/24 07:10:50;;;;;;;2.92;1.50;;;;;;;;;;5015946;28;20029;-64
2023/08/24 07:13:16;;;;;;;2.17;1.30;;;;;;;;;;5020176;28;20057;-64
2023/08/24 07:15:42;;;;;;;2.45;1.20;;;;;;;;;;5019744;28;20371;-64
2023/08/24 07:18:08;;;;;;;1.70;1.30;;;;;;;;;;5019749;28;20495;-63
2023/08/24 07:20:34;;;;;;;1.73;1.40;;;;;;;;;;5019889;28;20472;-63
2023/08/24 07:23:00;;;;;;;2.20;1.13;;;;;;;;;;5019977;28;20094;-63
2023/08/24 07:25:27;;;;;;;2.00;1.30;;;;;;;;;;5019447;28;20021;-63
2023/08/24 07:27:57;;;;;;;2.63;1.30;;;;;;;;;;5019718;28;20037;-63
2023/08/24 07:30:25;;;;;;;1.98;1.20;;;;;;;;;;5036095;28;20028;-63
2023/08/24 07:32:52;;;;;;;2.17;1.33;;;;;;;;;;5036118;28;20031;-63
2023/08/24 07:35:17;;;;;;;2.10;1.40;;;;;;;;;;5018614;28;20032;-64
2023/08/24 07:37:43;;;;;;;1.52;1.20;;;;;;;;;;5019479;28;20120;-66
2023/08/24 07:40:09;;;;;;;1.55;1.00;;;;;;;;;;5019505;28;20349;-65
2023/08/24 07:42:47;;;;;;;1.98;1.25;;;;;;;;;;5019153;28;20484;-66
2023/08/24 07:45:13;;;;;;;2.17;1.20;;;;;;;;;;5025124;28;20038;-64
2023/08/24 07:47:39;;;;;;;1.90;1.20;;;;;;;;;;5026604;28;20037;-64
2023/08/24 07:50:06;;;;;;;1.80;1.20;;;;;;;;;;5019092;28;20025;-64
2023/08/24 07:52:32;;;;;;;2.42;1.20;;;;;;;;;;5018817;28;20083;-64
2023/08/24 07:54:59;;;;;;;2.25;1.10;;;;;;;;;;5019418;28;20026;-63
2023/08/24 07:57:26;;;;;;;1.88;1.23;;;;;;;;;;5019127;28;20472;-64
2023/08/24 07:59:52;;;;;;;2.78;1.30;;;;;;;;;;5019018;28;20456;-64
2023/08/24 08:02:17;;;;;;;2.95;1.10;;;;;;;;;;5033284;28;20033;-64
2023/08/24 08:04:43;;;;;;;2.72;1.20;;;;;;;;;;5037774;28;20047;-64
2023/08/24 08:07:09;;;;;;;2.42;1.23;;;;;;;;;;5037228;28;20029;-64
2023/08/24 08:09:36;;;;;;;1.55;1.08;;;;;;;;;;5018725;28;20116;-65
2023/08/24 08:12:01;;;;;;;2.60;1.23;;;;;;;;;;5026128;28;20029;-65
2023/08/24 08:14:27;;;;;;;1.95;1.25;;;;;;;;;;5019646;28;20118;-65
2023/08/24 08:16:53;;;;;;;2.80;1.30;;;;;;;;;;5017700;28;20482;-65
2023/08/24 08:19:19;;;;;;;2.10;1.30;;;;;;;;;;5016641;28;20164;-65
2023/08/24 08:21:45;;;;;;;1.83;1.40;;;;;;;;;;5049391;28;20128;-65
2023/08/24 08:24:10;;;;;;;1.63;1.20;;;;;;;;;;5049611;28;20464;-65
2023/08/24 08:26:36;;;;;;;2.38;1.30;;;;;;;;;;5050552;28;20036;-65
2023/08/24 08:29:02;;;;;;;1.77;1.10;;;;;;;;;;5063629;28;20024;-65
2023/08/24 08:31:27;;;;;;;1.65;1.17;;;;;;;;;;5037293;28;20029;-65
2023/08/24 08:33:53;;;;;;;2.08;1.30;;;;;;;;;;5037085;28;20033;-66
2023/08/24 08:36:18;;;;;;;2.10;1.20;;;;;;;;;;5035640;28;20047;-64
2023/08/24 08:38:44;;;;;;;1.90;1.30;;;;;;;;;;5035089;28;20028;-66
2023/08/24 08:41:09;;;;;;;2.40;1.20;;;;;;;;;;5035008;28;20057;-66
2023/08/24 08:43:38;;;;;;;2.72;1.27;;;;;;;;;;5036189;28;20493;-66
2023/08/24 08:46:04;;;;;;;2.15;1.40;;;;;;;;;;5035400;28;20021;-67
2023/08/24 08:48:31;;;;;;;2.72;1.23;;;;;;;;;;5037104;28;20556;-66
2023/08/24 08:50:57;;;;;;;2.92;1.40;;;;;;;;;;5033082;28;20415;-66
2023/08/24 08:53:23;;;;;;;2.10;1.25;;;;;;;;;;5017174;28;20124;-66
2023/08/24 08:55:53;;;;;;;2.80;1.30;;;;;;;;;;5016887;28;20087;-66
2023/08/24 08:58:19;;;;;;;1.90;1.33;;;;;;;;;;5016959;28;20067;-67
2023/08/24 09:00:46;;;;;;;2.42;1.40;;;;;;;;;;5016896;28;20108;-66
2023/08/24 09:03:21;;;;;;;1.65;1.27;;;;;;;;;;5016674;28;20112;-66
2023/08/24 09:05:48;;;;;;;2.10;1.35;;;;;;;;;;4961246;28;1615243;-64
2023/08/24 09:08:14;;;;;;;1.92;1.05;;;;;;;;;;5017287;28;20037;-64
2023/08/24 09:10:40;;;;;;;2.50;1.38;;;;;;;;;;5017506;28;20037;-63
2023/08/24 09:13:06;;;;;;;1.95;1.20;;;;;;;;;;5013565;28;20029;-64
2023/08/24 09:15:34;;;;;;;2.05;1.02;;;;;;;;;;5043738;28;20029;-63
2023/08/24 09:18:00;;;;;;;2.67;1.50;;;;;;;;;;5017368;28;20120;-63
2023/08/24 09:20:28;;;;;;;3.70;1.50;;;;;;;;;;5033946;28;20483;-63
2023/08/24 09:22:56;;;;;;;3.53;1.60;;;;;;;;;;5017669;28;20468;-63
2023/08/24 09:25:22;;;;;;;2.15;1.30;;;;;;;;;;5017213;28;20030;-63
2023/08/24 09:27:56;;;;;;;2.35;1.10;;;;;;;;;;5025106;28;20448;-63
2023/08/24 09:30:21;;;;;;;2.25;1.40;;;;;;;;;;5018523;28;20460;-63
2023/08/24 09:32:47;;;;;;;2.25;1.40;;;;;;;;;;5017472;28;20032;-63
2023/08/24 09:35:13;;;;;;;3.20;1.40;;;;;;;;;;5016628;28;20055;-63
2023/08/24 09:37:40;;;;;;;1.83;1.10;;;;;;;;;;5017309;28;20079;-63
2023/08/24 09:40:09;;;;;;;2.53;1.25;;;;;;;;;;5017766;28;20025;-63
2023/08/24 09:42:39;;;;;;;2.78;1.35;;;;;;;;;;5017276;28;20060;-64
2023/08/24 09:45:05;;;;;;;2.10;1.20;;;;;;;;;;5016917;28;20040;-63
2023/08/24 09:47:31;;;;;;;2.33;1.30;;;;;;;;;;5005273;28;20124;-65
2023/08/24 09:49:56;;;;;;;3.40;1.42;;;;;;;;;;5028692;28;20124;-63
2023/08/24 09:52:23;;;;;;;1.70;1.10;;;;;;;;;;5038724;28;20025;-63
2023/08/24 09:54:51;;;;;;;1.58;1.15;;;;;;;;;;5016867;28;20068;-63
2023/08/24 09:57:16;;;;;;;2.53;1.27;;;;;;;;;;5016840;28;20060;-63
2023/08/24 09:59:43;;;;;;;2.45;1.20;;;;;;;;;;5033865;28;20049;-63
2023/08/24 10:02:17;;;;;;;2.08;1.23;;;;;;;;;;5048990;28;20380;-65
2023/08/24 10:04:43;;;;;;;2.08;1.20;;;;;;;;;;5044582;28;20395;-64
2023/08/24 10:07:14;;;;;;;2.40;1.30;;;;;;;;;;5036605;28;20033;-63
2023/08/24 10:10:02;;;;;;;2.25;1.40;;;;;;;;;;5053171;28;20056;-63
2023/08/24 10:12:31;;;;;;;2.00;1.10;;;;;;;;;;5052962;28;20044;-63
2023/08/24 10:14:57;;;;;;;2.55;1.20;;;;;;;;;;5034283;28;20028;-63
2023/08/24 10:17:23;;;;;;;1.70;1.10;;;;;;;;;;5036276;28;20025;-63
2023/08/24 10:19:51;;;;;;;1.92;1.20;;;;;;;;;;5035092;28;20044;-63
2023/08/24 10:22:18;;;;;;;2.15;1.30;;;;;;;;;;5034159;28;20468;-63
2023/08/24 10:24:44;;;;;;;1.83;1.30;;;;;;;;;;5032188;28;20040;-63
2023/08/24 10:27:10;;;;;;;2.00;1.25;;;;;;;;;;5034102;28;20082;-63
2023/08/24 10:29:35;;;;;;;1.50;0.98;;;;;;;;;;5017693;28;20116;-63
2023/08/24 10:32:02;;;;;;;2.50;1.40;;;;;;;;;;5034126;28;20564;-63
2023/08/24 10:34:28;;;;;;;1.58;1.20;;;;;;;;;;5032310;28;20025;-63
2023/08/24 10:36:53;;;;;;;2.90;1.13;;;;;;;;;;5034029;28;20500;-63
2023/08/24 10:39:26;;;;;;;1.88;1.20;;;;;;;;;;5035635;28;20028;-64
2023/08/24 10:41:52;;;;;;;1.90;1.20;;;;;;;;;;5036107;28;20025;-63
2023/08/24 10:44:22;;;;;;;2.53;1.27;;;;;;;;;;5028947;28;20086;-62
2023/08/24 10:47:06;;;;;;;1.50;1.02;;;;;;;;;;5032408;28;20024;-64
2023/08/24 10:49:32;;;;;;;2.20;1.38;;;;;;;;;;5031578;28;20025;-62
2023/08/24 10:51:57;;;;;;;2.03;1.10;;;;;;;;;;5035927;28;20044;-63
2023/08/24 10:54:32;;;;;;;1.92;1.10;;;;;;;;;;5027302;28;20021;-63
2023/08/24 10:57:02;;;;;;;1.70;1.20;;;;;;;;;;5016215;28;20087;-62
2023/08/24 10:59:34;;;;;;;2.95;1.27;;;;;;;;;;5015791;28;20384;-63
2023/08/24 11:02:01;;;;;;;1.90;1.10;;;;;;;;;;5016136;28;20025;-63
2023/08/24 11:04:27;;;;;;;2.58;1.17;;;;;;;;;;5040213;28;20033;-63
2023/08/24 11:06:57;;;;;;;2.40;1.17;;;;;;;;;;5035955;28;20029;-63
2023/08/24 11:09:23;;;;;;;2.13;1.23;;;;;;;;;;5051910;28;20017;-64
2023/08/24 11:11:56;;;;;;;2.47;1.10;;;;;;;;;;5019390;28;20040;-63
2023/08/24 11:14:25;;;;;;;2.50;1.27;;;;;;;;;;5027440;28;20095;-64
2023/08/24 11:16:50;;;;;;;2.13;1.00;;;;;;;;;;5015950;28;20029;-63
2023/08/24 11:19:16;;;;;;;1.95;1.10;;;;;;;;;;5015943;28;20423;-63
2023/08/24 11:21:43;;;;;;;1.50;1.00;;;;;;;;;;5015946;28;20024;-63
2023/08/24 11:24:09;;;;;;;3.00;1.50;;;;;;;;;;5018191;28;20123;-63
2023/08/24 11:26:35;;;;;;;1.98;1.02;;;;;;;;;;5015742;28;20503;-64
2023/08/24 11:29:04;;;;;;;1.83;1.10;;;;;;;;;;5015866;28;20049;-63
2023/08/24 11:31:29;;;;;;;2.17;1.17;;;;;;;;;;5015828;28;20464;-63
2023/08/24 11:33:58;;;;;;;1.85;1.17;;;;;;;;;;5016801;28;20028;-64
2023/08/24 11:36:23;;;;;;;1.98;1.10;;;;;;;;;;5015531;28;20026;-63
2023/08/24 11:38:51;;;;;;;1.80;1.10;;;;;;;;;;5016615;28;20028;-64
2023/08/24 11:41:17;;;;;;;2.25;1.15;;;;;;;;;;5023902;28;20056;-63
2023/08/24 11:43:48;;;;;;;2.08;1.02;;;;;;;;;;5034586;28;20044;-64
2023/08/24 11:46:17;;;;;;;1.83;1.20;;;;;;;;;;5051980;28;20059;-65
2023/08/24 11:48:43;;;;;;;1.92;1.00;;;;;;;;;;5035284;28;20086;-63
2023/08/24 11:51:12;;;;;;;2.90;1.15;;;;;;;;;;5018302;28;20014;-64
2023/08/24 11:53:47;;;;;;;1.58;1.10;;;;;;;;;;5015596;28;20055;-63
2023/08/24 11:56:13;;;;;;;1.63;1.10;;;;;;;;;;5015645;28;20025;-64
2023/08/24 11:58:39;;;;;;;1.88;1.02;;;;;;;;;;5017869;28;20043;-63
2023/08/24 12:01:05;;;;;;;2.00;1.10;;;;;;;;;;5018968;28;20368;-64
2023/08/24 12:03:31;;;;;;;1.35;1.00;;;;;;;;;;5018867;28;20029;-63
2023/08/24 12:06:01;;;;;;;1.48;1.08;;;;;;;;;;5018965;28;20032;-63
2023/08/24 12:08:28;;;;;;;2.38;1.17;;;;;;;;;;5053163;28;20025;-63
2023/08/24 12:10:53;;;;;;;2.00;1.00;;;;;;;;;;5038441;28;20395;-64
2023/08/24 12:13:19;;;;;;;1.77;1.08;;;;;;;;;;5038721;28;20024;-64
2023/08/24 12:15:47;;;;;;;1.95;1.08;;;;;;;;;;5034386;28;20030;-63
2023/08/24 12:18:13;;;;;;;1.80;1.10;;;;;;;;;;5018527;28;20067;-63
2023/08/24 12:20:42;;;;;;;2.15;1.00;;;;;;;;;;5019510;28;20025;-63
2023/08/24 12:23:08;;;;;;;2.05;1.10;;;;;;;;;;5055817;28;20021;-64
2023/08/24 12:25:38;;;;;;;2.65;1.30;;;;;;;;;;5021769;28;20053;-63
2023/08/24 12:28:16;;;;;;;1.83;1.00;;;;;;;;;;5038448;28;20036;-63
2023/08/24 12:30:44;;;;;;;1.77;0.95;;;;;;;;;;5036107;28;20032;-63
2023/08/24 12:33:20;;;;;;;1.85;1.00;;;;;;;;;;5018522;28;20067;-63
2023/08/24 12:35:46;;;;;;;1.63;1.00;;;;;;;;;;5018984;28;20030;-63
2023/08/24 12:38:11;;;;;;;1.90;1.05;;;;;;;;;;5018472;28;20091;-63
2023/08/24 12:40:37;;;;;;;1.73;0.90;;;;;;;;;;5018274;28;20018;-63
2023/08/24 12:43:02;;;;;;;2.67;1.10;;;;;;;;;;5018376;28;20094;-64
2023/08/24 12:45:28;;;;;;;2.15;1.02;;;;;;;;;;5018058;28;20033;-64
2023/08/24 12:47:54;;;;;;;2.22;1.20;;;;;;;;;;5002015;28;20100;-64
2023/08/24 12:50:19;;;;;;;2.30;1.10;;;;;;;;;;5018512;28;20156;-63
2023/08/24 12:52:45;;;;;;;2.60;1.10;;;;;;;;;;5018135;28;20029;-63
2023/08/24 12:55:10;;;;;;;2.05;1.17;;;;;;;;;;5018139;28;20376;-63
2023/08/24 12:57:36;;;;;;;2.03;0.93;;;;;;;;;;5019404;28;20099;-64
2023/08/24 13:00:01;;;;;;;1.98;1.10;;;;;;;;;;5038476;28;20029;-63
2023/08/24 13:02:27;;;;;;;2.22;1.20;;;;;;;;;;5022918;28;20460;-63
2023/08/24 13:04:52;;;;;;;2.10;1.13;;;;;;;;;;5017641;28;20041;-63
2023/08/24 13:07:18;;;;;;;1.73;1.05;;;;;;;;;;5017988;28;20075;-63
2023/08/24 13:09:43;;;;;;;1.90;1.10;;;;;;;;;;5016716;28;20028;-63
2023/08/24 13:12:09;;;;;;;1.83;1.15;;;;;;;;;;5028051;28;20029;-63
2023/08/24 13:14:34;;;;;;;2.03;1.00;;;;;;;;;;5037584;28;20033;-64
2023/08/24 13:17:00;;;;;;;2.75;1.10;;;;;;;;;;5037601;28;20426;-64
2023/08/24 13:19:25;;;;;;;1.85;1.02;;;;;;;;;;5037143;28;20071;-63
2023/08/24 13:21:51;;;;;;;1.98;1.20;;;;;;;;;;5032318;28;20035;-63
2023/08/24 13:24:16;;;;;;;1.85;1.17;;;;;;;;;;5037289;28;20488;-63
2023/08/24 13:26:42;;;;;;;2.35;1.00;;;;;;;;;;5037448;28;20021;-64
2023/08/24 13:29:07;;;;;;;2.50;1.13;;;;;;;;;;5037357;28;20057;-64
2023/08/24 13:31:33;;;;;;;1.40;1.10;;;;;;;;;;5036882;28;20464;-63
2023/08/24 13:33:59;;;;;;;1.23;0.90;;;;;;;;;;5053394;28;20510;-63
2023/08/24 13:36:25;;;;;;;1.25;0.90;;;;;;;;;;5037352;28;20048;-63
2023/08/24 13:38:50;;;;;;;2.28;1.20;;;;;;;;;;5037131;28;20017;-64
2023/08/24 13:41:16;;;;;;;1.75;1.10;;;;;;;;;;5036705;28;20376;-63
2023/08/24 13:43:41;;;;;;;1.73;1.00;;;;;;;;;;5036995;28;20033;-63
2023/08/24 13:46:07;;;;;;;2.17;1.00;;;;;;;;;;5036954;28;20032;-64
2023/08/24 13:48:35;;;;;;;1.58;1.00;;;;;;;;;;5035062;28;20031;-64
2023/08/24 13:51:01;;;;;;;1.63;1.00;;;;;;;;;;5029933;28;20163;-64
2023/08/24 13:53:26;;;;;;;2.35;1.10;;;;;;;;;;5017096;28;20471;-63
2023/08/24 13:55:52;;;;;;;1.77;1.00;;;;;;;;;;5016435;28;20487;-63
2023/08/24 13:58:17;;;;;;;2.10;1.00;;;;;;;;;;5016940;28;20025;-64
2023/08/24 14:00:44;;;;;;;2.25;1.10;;;;;;;;;;5016963;28;20025;-63
2023/08/24 14:03:09;;;;;;;1.55;0.90;;;;;;;;;;5033403;28;20018;-64
2023/08/24 14:05:38;;;;;;;2.72;1.17;;;;;;;;;;5022891;28;20037;-64
2023/08/24 14:08:04;;;;;;;1.88;1.02;;;;;;;;;;5036614;28;20119;-63
2023/08/24 14:10:29;;;;;;;2.10;1.30;;;;;;;;;;5036372;28;20116;-63
2023/08/24 14:12:55;;;;;;;2.05;1.20;;;;;;;;;;5036546;28;20016;-63
2023/08/24 14:15:20;;;;;;;1.52;0.90;;;;;;;;;;5032172;28;20476;-65
2023/08/24 14:17:46;;;;;;;2.40;1.10;;;;;;;;;;5034333;28;20021;-64
2023/08/24 14:20:12;;;;;;;1.25;0.95;;;;;;;;;;5035951;28;20040;-64
2023/08/24 14:22:38;;;;;;;1.67;1.10;;;;;;;;;;5022739;28;20029;-64
2023/08/24 14:25:04;;;;;;;1.65;1.00;;;;;;;;;;5032871;28;20431;-64
2023/08/24 14:27:29;;;;;;;2.38;1.25;;;;;;;;;;5020015;28;20029;-63
2023/08/24 14:29:55;;;;;;;1.60;1.00;;;;;;;;;;5036017;28;20037;-63
2023/08/24 14:32:22;;;;;;;1.90;1.10;;;;;;;;;;5034179;28;20017;-64
2023/08/24 14:34:48;;;;;;;1.80;1.10;;;;;;;;;;5036122;28;20063;-65
2023/08/24 14:37:13;;;;;;;1.83;1.20;;;;;;;;;;5036168;28;20017;-64
2023/08/24 14:39:39;;;;;;;1.48;1.10;;;;;;;;;;5036058;28;20095;-63